Sidney, MT

3:47 AM MDT on August 28, 2015 (GMT -0600)
Miller's Subdivision | | Change Station
CLOSE
Current Station
Personal Weather Station
Location: Sidney, MT
Elevation: 1969 ft
Nearby Weather Stations

Elev 1969 ft 47.72 °N, 104.19 °W | Updated 2 seconds ago

Clear
Clear
62.1 °F
Feels Like 62.1 °F
N
0.7
Wind Variable Wind from West
Gusts 2.2 mph

Today
High -- | Low -- °F
--% Chance of Precip.
Yesterday
High -- | Low -- °F
Precip. -- in
6:09 AM 7:45 PM
Waxing Gibbous, 97% visible
Pressure 29.87 in
Visibility 10.0 miles
Clouds Clear
Dew Point 59 °F
Humidity 90%
Rainfall 0.00 in
Snow Depth Not available.
UV 0 out of 12
Pollen 9.80 out of 12
Air Quality Not available.
Flu Activity Not available.
METAR KSDY 280935Z AUTO 18003KT 10SM CLR 16/13 A2987 RMK AO1
Pressure 29.87 in
Visibility 10.0 miles
Clouds Clear
Dew Point 59 °F
Humidity 90%
Rainfall 0.00 in
Snow Depth Not available.
UV 0 out of 12
Pollen 9.80 out of 12
Air Quality Not available.
Flu Activity Not available.
METAR KSDY 280935Z AUTO 18003KT 10SM CLR 16/13 A2987 RMK AO1

10-Day Weather Forecast

×

Almanac

Astronomy

Aug. 28, 2015 Rise Set
Actual Time
Civil Twilight
Nautical Twilight
Astronomical Twilight
Moon
Length of Visible Light
Length of Day
Tomorrow will be .
, % of the Moon is Illuminated

Today's Extremes

State Highs State Lows

Community

WunderPhotos

Upload Photos

1,850,352 photos uploaded!

WunderBlogs® & News

Nearby

Air Quality

  Air Quality AQ Index Pollutant
Not available.

Snow Depth

Station Depth Elevation

Earthquake Activity

City Distance Mag. Time & Date
Minimum magnitude displayed is 2.5.

Coastal Water Temperatures

Place Temperature

Stations

Nearby Weather Stations

Station Location Temp. Windchill Dew Point Humidity Wind Precip. Elev Updated Type